Time;durP1;ratioP1;P1;durP2;ratioP2;P2;SDS_P1;SDS_P2;PMS_P1;PMS_P2;Temp;Humidity;BMP_temperature;BMP_pressure;BME280_temperature;BME280_humidity;BME280_pressure;Samples;Min_cycle;Max_cycle;Signal;HPM_P1;HPM_P2
2023/11/06 00:01:18;;;;;;;10.02;2.08;;;13.50;99.90;;;;;;10539037;28;20126;-35
2023/11/06 00:06:20;;;;;;;15.13;2.92;;;12.50;99.90;;;;;;10544350;28;20523;-35
2023/11/06 00:11:24;;;;;;;6.70;2.23;;;12.70;99.90;;;;;;10546395;28;20363;-32
2023/11/06 00:16:26;;;;;;;7.30;1.88;;;13.10;99.90;;;;;;10538821;28;20039;-40
2023/11/06 00:21:28;;;;;;;12.57;1.52;;;12.40;99.90;;;;;;10546751;28;20078;-35
2023/11/06 00:26:31;;;;;;;7.40;1.58;;;11.80;99.90;;;;;;10544753;28;20044;-31
2023/11/06 00:31:39;;;;;;;6.63;1.67;;;11.80;99.90;;;;;;10546467;28;20048;-38
2023/11/06 00:36:40;;;;;;;13.85;1.73;;;11.40;99.90;;;;;;10556637;28;20049;-37
2023/11/06 00:41:44;;;;;;;8.65;1.45;;;11.80;99.90;;;;;;10554934;28;20472;-37
2023/11/06 00:46:45;;;;;;;13.05;1.67;;;12.20;99.90;;;;;;10550385;28;20775;-35
2023/11/06 00:51:47;;;;;;;6.82;1.52;;;12.10;99.90;;;;;;10556516;28;20036;-34
2023/11/06 00:56:51;;;;;;;4.33;1.23;;;12.50;99.90;;;;;;10557175;28;20120;-34
2023/11/06 01:01:53;;;;;;;10.20;1.88;;;13.00;99.90;;;;;;10549230;28;20122;-42
2023/11/06 01:06:55;;;;;;;6.72;1.30;;;12.50;99.90;;;;;;10555746;28;20054;-37
2023/11/06 01:11:58;;;;;;;5.97;1.83;;;12.50;99.90;;;;;;10556446;28;20055;-31
2023/11/06 01:17:00;;;;;;;11.27;2.65;;;11.80;99.90;;;;;;10556131;28;20426;-35
2023/11/06 01:22:02;;;;;;;7.95;1.88;;;12.40;99.90;;;;;;10553833;28;20044;-44
2023/11/06 01:27:05;;;;;;;10.43;1.55;;;12.60;99.90;;;;;;10551451;28;20036;-32
2023/11/06 01:32:07;;;;;;;11.38;1.98;;;12.60;99.90;;;;;;10553062;28;20076;-33
2023/11/06 01:37:09;;;;;;;7.93;2.00;;;12.30;99.90;;;;;;10550375;28;20508;-32
2023/11/06 01:42:13;;;;;;;18.20;2.20;;;12.70;99.90;;;;;;10553452;28;20139;-34
2023/11/06 01:47:15;;;;;;;12.80;1.95;;;12.50;99.90;;;;;;10544401;28;20075;-38
2023/11/06 01:52:21;;;;;;;5.82;1.60;;;12.40;99.90;;;;;;10547114;28;20471;-30
2023/11/06 01:57:25;;;;;;;5.13;1.27;;;13.20;99.90;;;;;;10549407;28;20695;-36
2023/11/06 02:02:29;;;;;;;8.75;2.00;;;12.30;99.90;;;;;;10551820;28;20044;-29
2023/11/06 02:07:31;;;;;;;8.73;2.55;;;12.20;99.90;;;;;;10535505;28;20589;-38
2023/11/06 02:12:34;;;;;;;5.27;1.43;;;12.80;99.90;;;;;;10544586;28;20860;-30
2023/11/06 02:17:36;;;;;;;6.65;1.77;;;13.30;99.90;;;;;;10547519;28;20067;-30
2023/11/06 02:22:42;;;;;;;18.23;1.92;;;12.90;99.90;;;;;;10542400;28;20039;-39
2023/11/06 02:27:45;;;;;;;5.93;1.88;;;12.20;99.90;;;;;;10552917;28;20055;-32
2023/11/06 02:32:47;;;;;;;8.52;1.50;;;13.00;99.90;;;;;;10550782;28;20071;-31
2023/11/06 02:37:48;;;;;;;4.75;1.40;;;12.30;99.90;;;;;;10546662;28;20544;-32
2023/11/06 02:42:52;;;;;;;4.28;1.33;;;13.30;99.90;;;;;;10554154;28;20130;-40
2023/11/06 02:47:53;;;;;;;5.78;2.03;;;13.80;99.90;;;;;;10544487;28;20089;-33
2023/11/06 02:52:56;;;;;;;8.60;1.88;;;13.30;99.90;;;;;;10546441;28;20135;-34
2023/11/06 02:58:00;;;;;;;12.00;2.28;;;13.00;99.90;;;;;;10550990;28;20051;-33
2023/11/06 03:03:02;;;;;;;7.55;1.48;;;12.30;99.90;;;;;;10529097;28;20135;-32
2023/11/06 03:08:04;;;;;;;5.95;1.95;;;13.50;99.90;;;;;;10549851;28;20051;-30
2023/11/06 03:13:10;;;;;;;12.03;2.03;;;12.10;99.90;;;;;;10549020;28;20109;-38
2023/11/06 03:18:12;;;;;;;8.10;1.80;;;11.70;99.90;;;;;;10546111;28;20134;-31
2023/11/06 03:23:14;;;;;;;7.68;1.80;;;12.10;99.90;;;;;;10543970;28;20143;-35
2023/11/06 03:28:17;;;;;;;6.22;1.65;;;11.90;99.90;;;;;;10546116;28;20122;-34
2023/11/06 03:33:19;;;;;;;7.28;1.75;;;11.60;99.90;;;;;;10544895;28;20484;-30
2023/11/06 03:38:21;;;;;;;5.32;2.35;;;11.60;99.90;;;;;;10548747;28;20043;-31
2023/11/06 03:43:24;;;;;;;8.65;1.75;;;11.30;99.90;;;;;;10549806;28;20044;-42
2023/11/06 03:48:26;;;;;;;12.07;1.85;;;12.20;99.90;;;;;;10546236;28;20044;-34
2023/11/06 03:53:28;;;;;;;7.63;1.30;;;12.20;99.90;;;;;;10547265;28;20434;-34
2023/11/06 04:15:41;;;;;;;6.43;1.52;;;11.70;99.90;;;;;;10521370;27;1260481;-28
2023/11/06 04:20:43;;;;;;;5.72;1.25;;;11.90;99.90;;;;;;10565641;28;20040;-33
2023/11/06 04:25:48;;;;;;;7.93;1.35;;;11.50;99.90;;;;;;10566707;28;20085;-31
2023/11/06 04:30:51;;;;;;;8.02;1.65;;;11.90;99.90;;;;;;10561866;28;20092;-31
2023/11/06 04:35:53;;;;;;;5.47;2.25;;;11.20;99.90;;;;;;10562112;28;20040;-41
2023/11/06 04:40:56;;;;;;;4.80;1.00;;;11.40;99.90;;;;;;10556642;28;20052;-34
2023/11/06 04:45:59;;;;;;;6.90;1.02;;;11.20;99.90;;;;;;10562203;28;20087;-33
2023/11/06 04:51:00;;;;;;;;;;;11.40;99.90;;;;;;10562307;28;22750;-31
2023/11/06 04:56:04;;;;;;;6.70;1.10;;;11.00;99.90;;;;;;10566070;28;19971;-31
2023/11/06 05:01:08;;;;;;;8.27;1.77;;;11.40;99.90;;;;;;10561269;28;20047;-35
2023/11/06 05:06:10;;;;;;;4.07;1.02;;;11.40;99.90;;;;;;10563407;28;20058;-47
2023/11/06 05:11:12;;;;;;;6.40;1.00;;;11.20;99.90;;;;;;10561157;28;20558;-36
2023/11/06 05:16:15;;;;;;;9.13;0.80;;;10.90;99.90;;;;;;10560478;28;20055;-38
2023/11/06 05:21:23;;;;;;;6.05;0.80;;;11.30;99.90;;;;;;10551149;28;20048;-29
2023/11/06 05:26:25;;;;;;;5.28;0.70;;;11.30;99.90;;;;;;10534242;28;20119;-37
2023/11/06 05:31:29;;;;;;;3.67;1.60;;;11.60;99.90;;;;;;10536000;28;20078;-34
2023/11/06 05:36:31;;;;;;;4.47;0.93;;;11.20;99.90;;;;;;10532459;28;20442;-32
2023/11/06 05:41:33;;;;;;;10.75;1.58;;;11.50;99.90;;;;;;10526634;28;20073;-37
2023/11/06 05:46:36;;;;;;;7.45;1.23;;;11.10;99.90;;;;;;10530286;28;20366;-31
2023/11/06 05:51:38;;;;;;;8.18;1.00;;;11.40;99.90;;;;;;10523479;28;20487;-33
2023/11/06 05:56:39;;;;;;;3.47;0.93;;;11.70;99.90;;;;;;10524284;28;20480;-36
2023/11/06 06:01:43;;;;;;;4.65;0.90;;;11.70;99.90;;;;;;10527382;28;20127;-46
2023/11/06 06:06:45;;;;;;;8.60;1.50;;;11.20;99.90;;;;;;10508615;28;20707;-31
2023/11/06 06:11:47;;;;;;;10.65;0.98;;;11.40;99.90;;;;;;10527773;28;20135;-28
2023/11/06 06:16:50;;;;;;;7.37;1.23;;;12.10;99.90;;;;;;10521528;28;20747;-30
2023/11/06 06:21:52;;;;;;;5.10;1.27;;;11.40;99.90;;;;;;10520164;28;20052;-32
2023/11/06 06:26:54;;;;;;;6.47;1.50;;;11.00;99.90;;;;;;10522716;28;20503;-39
2023/11/06 06:31:57;;;;;;;6.38;1.20;;;11.90;99.90;;;;;;10523047;28;20740;-39
2023/11/06 06:36:59;;;;;;;8.27;1.55;;;11.20;99.90;;;;;;10525939;28;20703;-33
2023/11/06 06:42:00;;;;;;;6.40;1.10;;;11.30;99.90;;;;;;10519500;28;20101;-33
2023/11/06 06:47:04;;;;;;;7.38;1.23;;;11.70;99.90;;;;;;10525882;28;20347;-35
2023/11/06 06:52:05;;;;;;;3.35;0.90;;;11.80;99.90;;;;;;10533190;28;20134;-32
2023/11/06 06:57:07;;;;;;;6.40;1.27;;;10.90;99.90;;;;;;10517286;28;20044;-35
2023/11/06 07:02:10;;;;;;;10.88;1.33;;;10.70;99.90;;;;;;10518396;28;20040;-37
2023/11/06 07:07:12;;;;;;;8.35;1.30;;;11.30;99.90;;;;;;10520775;28;20041;-47
2023/11/06 07:12:14;;;;;;;3.00;0.80;;;11.10;99.90;;;;;;10525544;28;20068;-31
2023/11/06 07:17:17;;;;;;;6.53;1.25;;;11.40;99.90;;;;;;10516982;28;20036;-35
2023/11/06 07:22:19;;;;;;;6.78;0.90;;;10.80;99.90;;;;;;10524593;28;20047;-34
2023/11/06 07:27:21;;;;;;;7.28;1.25;;;10.90;99.90;;;;;;10523017;28;20051;-36
2023/11/06 07:32:25;;;;;;;6.00;1.20;;;12.20;99.90;;;;;;10523286;28;20142;-33
2023/11/06 07:37:26;;;;;;;;;;;11.10;99.90;;;;;;10528123;28;20070;-38
2023/11/06 07:42:28;;;;;;;4.70;0.77;;;11.30;99.90;;;;;;10518253;28;20277;-37
2023/11/06 07:47:31;;;;;;;5.53;0.82;;;11.60;99.90;;;;;;10526838;28;20450;-30
2023/11/06 07:52:33;;;;;;;;;;;11.40;99.90;;;;;;10522759;28;20083;-34
2023/11/06 07:57:34;;;;;;;7.32;1.00;;;11.10;99.90;;;;;;10528056;28;23823;-31
2023/11/06 08:02:38;;;;;;;4.45;1.00;;;11.50;99.90;;;;;;10520500;28;21005;-38
2023/11/06 08:07:40;;;;;;;;;;;11.80;99.90;;;;;;10529459;28;20043;-42
2023/11/06 08:12:42;;;;;;;4.32;0.88;;;12.50;99.90;;;;;;10526139;28;19961;-33
2023/11/06 08:17:45;;;;;;;10.65;1.50;;;12.60;99.90;;;;;;10521977;28;20064;-36
2023/11/06 08:22:47;;;;;;;8.90;1.40;;;11.60;99.90;;;;;;10521527;28;20047;-32
2023/11/06 08:27:49;;;;;;;5.47;0.80;;;12.30;99.90;;;;;;10517551;28;20044;-39
2023/11/06 08:32:52;;;;;;;6.78;1.90;;;13.60;99.90;;;;;;10520571;28;20048;-31
2023/11/06 08:37:54;;;;;;;4.63;0.70;;;12.00;99.90;;;;;;10525018;28;20218;-31
2023/11/06 08:42:56;;;;;;;6.63;1.35;;;12.30;99.90;;;;;;10530200;28;20049;-40
2023/11/06 08:47:59;;;;;;;9.25;1.98;;;12.20;99.90;;;;;;10521548;28;20493;-36
2023/11/06 08:53:02;;;;;;;5.05;1.15;;;11.60;99.90;;;;;;10522969;28;20483;-42
2023/11/06 08:58:15;;;;;;;14.43;1.45;;;12.50;99.90;;;;;;10518486;28;20127;-35
2023/11/06 09:03:18;;;;;;;8.45;1.77;;;12.00;99.90;;;;;;10529052;28;20491;-35
2023/11/06 09:08:20;;;;;;;7.60;1.73;;;11.60;99.90;;;;;;10524197;28;20571;-41
2023/11/06 09:13:22;;;;;;;2.20;0.55;;;11.50;99.90;;;;;;10524269;28;20672;-41
2023/11/06 09:18:25;;;;;;;9.60;2.37;;;12.30;99.90;;;;;;10525552;28;20052;-37
2023/11/06 09:23:27;;;;;;;;;;;11.10;99.90;;;;;;10533692;28;20090;-34
2023/11/06 09:28:29;;;;;;;3.08;0.70;;;11.50;99.90;;;;;;10525440;28;20307;-35
2023/11/06 09:33:32;;;;;;;7.75;1.08;;;11.60;99.90;;;;;;10530026;28;20063;-36
2023/11/06 09:38:34;;;;;;;5.45;1.00;;;11.10;99.90;;;;;;10524712;28;20036;-31
2023/11/06 09:43:36;;;;;;;9.75;1.70;;;10.90;99.90;;;;;;10527969;28;20369;-32
2023/11/06 09:48:41;;;;;;;5.20;1.50;;;10.90;99.90;;;;;;10526576;28;20048;-40
2023/11/06 09:53:46;;;;;;;11.63;1.25;;;11.00;99.90;;;;;;10526409;28;20147;-32
2023/11/06 09:58:48;;;;;;;13.13;2.03;;;11.50;99.90;;;;;;10524218;28;20064;-42
2023/11/06 10:03:52;;;;;;;8.67;1.47;;;11.60;99.90;;;;;;10526396;28;20059;-32
2023/11/06 10:08:54;;;;;;;4.68;1.30;;;11.70;99.90;;;;;;10523075;28;20589;-34
2023/11/06 10:13:58;;;;;;;5.75;1.45;;;11.30;99.90;;;;;;10523730;28;20132;-37
2023/11/06 10:19:12;;;;;;;6.00;1.10;;;11.70;99.90;;;;;;10524966;28;20506;-30
2023/11/06 10:24:15;;;;;;;9.90;1.33;;;12.10;99.90;;;;;;10519780;28;20056;-31
2023/11/06 10:29:18;;;;;;;9.48;1.10;;;11.80;99.90;;;;;;10528605;28;20044;-33
2023/11/06 10:34:33;;;;;;;6.20;0.98;;;11.30;99.90;;;;;;10526410;28;20446;-31
2023/11/06 10:39:34;;;;;;;3.17;1.38;;;11.40;99.90;;;;;;10533820;28;20047;-44
2023/11/06 10:44:38;;;;;;;4.57;1.05;;;11.60;99.90;;;;;;10523414;28;20105;-36
2023/11/06 10:49:44;;;;;;;6.88;1.38;;;12.10;99.90;;;;;;10526576;28;20082;-33
2023/11/06 10:54:48;;;;;;;5.68;0.90;;;11.70;99.90;;;;;;10527574;28;20500;-30
2023/11/06 10:59:52;;;;;;;6.38;1.42;;;12.10;99.90;;;;;;10527729;28;20039;-40
2023/11/06 11:04:56;;;;;;;3.72;1.02;;;12.10;99.90;;;;;;10523111;28;20051;-36
2023/11/06 11:10:00;;;;;;;2.75;1.00;;;11.80;99.90;;;;;;10524569;28;20062;-29
2023/11/06 11:15:04;;;;;;;3.70;0.88;;;11.90;99.90;;;;;;10531211;28;20467;-38
2023/11/06 11:20:09;;;;;;;10.13;1.45;;;11.70;99.90;;;;;;10528136;28;20388;-35
2023/11/06 11:25:11;;;;;;;10.77;1.95;;;11.30;99.90;;;;;;10523481;28;20110;-35
2023/11/06 11:30:13;;;;;;;9.18;1.88;;;11.60;99.90;;;;;;10519609;28;20178;-37
2023/11/06 11:36:01;;;;;;;4.72;0.95;;;12.10;99.90;;;;;;10523634;28;20482;-34
2023/11/06 11:41:12;;;;;;;8.00;1.35;;;11.70;99.90;;;;;;10523030;28;20131;-41
2023/11/06 11:46:48;;;;;;;5.82;1.20;;;11.90;99.90;;;;;;10528668;28;20047;-36
2023/11/06 11:51:51;;;;;;;11.35;1.20;;;12.00;99.90;;;;;;10526115;28;20039;-34
2023/11/06 11:56:54;;;;;;;5.82;2.13;;;12.10;99.90;;;;;;10526205;28;20551;-37
2023/11/06 12:01:58;;;;;;;7.78;1.27;;;12.10;99.90;;;;;;10522528;28;20139;-37
2023/11/06 12:07:05;;;;;;;6.88;1.02;;;12.80;99.90;;;;;;10521046;28;20052;-33
2023/11/06 12:12:09;;;;;;;4.43;1.08;;;12.30;99.90;;;;;;10518993;28;20383;-47
2023/11/06 12:17:11;;;;;;;4.38;0.80;;;12.20;99.90;;;;;;10513874;28;20047;-40
2023/11/06 12:22:15;;;;;;;5.10;1.25;;;11.90;99.90;;;;;;10522515;28;20333;-43
2023/11/06 12:27:19;;;;;;;8.55;1.40;;;11.90;99.90;;;;;;10518284;28;20040;-35
2023/11/06 12:32:22;;;;;;;4.30;1.10;;;11.80;99.90;;;;;;10516532;28;20063;-31
2023/11/06 12:37:24;;;;;;;5.70;1.13;;;12.20;99.90;;;;;;10535433;28;20122;-35
2023/11/06 12:42:29;;;;;;;7.47;1.58;;;12.40;99.90;;;;;;10529972;28;20123;-31
2023/11/06 12:47:34;;;;;;;4.88;1.00;;;12.30;99.90;;;;;;10527841;28;20070;-37
2023/11/06 12:52:40;;;;;;;6.00;1.20;;;12.70;99.90;;;;;;10530372;28;20044;-35
2023/11/06 12:57:43;;;;;;;5.43;1.48;;;12.90;99.90;;;;;;10523540;28;20059;-31
2023/11/06 13:02:46;;;;;;;5.20;1.63;;;13.00;99.90;;;;;;10525694;28;20040;-32
2023/11/06 13:07:51;;;;;;;5.13;1.15;;;13.20;99.90;;;;;;10530530;28;20141;-30
2023/11/06 13:12:57;;;;;;;7.10;1.05;;;13.30;99.90;;;;;;10528320;28;20055;-37
2023/11/06 13:17:59;;;;;;;11.57;1.25;;;12.60;99.90;;;;;;10527085;28;20051;-32
2023/11/06 13:23:01;;;;;;;10.23;1.48;;;13.50;99.90;;;;;;10528202;28;20047;-35
2023/11/06 13:28:05;;;;;;;8.50;1.15;;;13.50;99.90;;;;;;10525091;28;20040;-35
2023/11/06 13:33:08;;;;;;;4.28;1.30;;;13.40;99.90;;;;;;10527834;28;20550;-33
2023/11/06 13:38:10;;;;;;;5.43;1.33;;;14.00;99.90;;;;;;10524688;28;20099;-34
2023/11/06 13:43:14;;;;;;;4.35;0.80;;;13.70;99.90;;;;;;10525509;28;20063;-31
2023/11/06 13:48:17;;;;;;;8.35;0.88;;;14.20;99.90;;;;;;10525793;28;20048;-35
2023/11/06 13:53:23;;;;;;;4.15;0.52;;;14.80;99.90;;;;;;10528264;28;20040;-33
2023/11/06 13:58:28;;;;;;;5.93;1.45;;;14.60;99.90;;;;;;10510578;28;20575;-31
2023/11/06 14:03:29;;;;;;;5.80;1.02;;;13.80;99.90;;;;;;10512275;28;20040;-30
2023/11/06 14:08:32;;;;;;;3.92;0.80;;;13.40;99.90;;;;;;10524224;28;20148;-35
2023/11/06 14:13:35;;;;;;;4.68;0.70;;;13.90;99.90;;;;;;10520794;28;20050;-36
2023/11/06 14:18:38;;;;;;;7.25;1.40;;;13.50;99.90;;;;;;10522038;28;20147;-36
2023/11/06 14:23:39;;;;;;;3.83;0.88;;;13.40;99.90;;;;;;10518446;28;20052;-38
2023/11/06 14:28:43;;;;;;;12.70;1.30;;;14.30;99.90;;;;;;10531691;28;20048;-35
2023/11/06 14:33:44;;;;;;;7.40;1.50;;;13.90;99.90;;;;;;10523243;28;20106;-38
2023/11/06 14:38:46;;;;;;;7.13;1.23;;;13.60;99.90;;;;;;10520691;28;20063;-28
2023/11/06 14:43:53;;;;;;;5.53;1.17;;;13.80;99.90;;;;;;10523713;28;20047;-34
2023/11/06 14:48:54;;;;;;;12.75;1.60;;;13.40;99.90;;;;;;10520680;28;20048;-35
2023/11/06 14:53:56;;;;;;;7.20;1.42;;;13.80;99.90;;;;;;10523561;28;20051;-46
2023/11/06 14:59:00;;;;;;;7.80;1.40;;;14.30;99.90;;;;;;10512311;28;20055;-36
2023/11/06 15:04:02;;;;;;;11.10;1.73;;;14.00;99.90;;;;;;10518116;28;20048;-36
2023/11/06 15:09:03;;;;;;;9.45;2.08;;;13.50;99.90;;;;;;10513376;28;20143;-29
2023/11/06 15:14:07;;;;;;;9.57;1.67;;;14.00;99.90;;;;;;10519776;28;20054;-38
2023/11/06 15:19:14;;;;;;;11.10;1.98;;;13.90;99.90;;;;;;10516902;28;20032;-31
2023/11/06 15:24:17;;;;;;;9.27;1.83;;;14.10;99.90;;;;;;10516403;28;20155;-38
2023/11/06 15:29:20;;;;;;;9.05;1.60;;;13.40;99.90;;;;;;10522219;28;20493;-33
2023/11/06 15:34:22;;;;;;;9.63;1.45;;;13.70;99.90;;;;;;10522310;28;20127;-35
2023/11/06 15:39:23;;;;;;;7.23;1.40;;;13.40;99.90;;;;;;10520014;28;20122;-38
2023/11/06 15:44:28;;;;;;;9.25;2.03;;;13.10;99.90;;;;;;10513916;28;20118;-36
2023/11/06 15:49:34;;;;;;;9.13;1.85;;;13.20;99.90;;;;;;10522948;28;20051;-38
2023/11/06 15:54:36;;;;;;;10.93;1.95;;;13.40;99.90;;;;;;10514257;28;20059;-34
2023/11/06 15:59:39;;;;;;;11.68;1.85;;;13.80;99.90;;;;;;10522177;28;20048;-40
2023/11/06 16:04:44;;;;;;;9.07;1.88;;;13.20;99.90;;;;;;10512424;28;20040;-32
2023/11/06 16:09:46;;;;;;;13.63;1.67;;;13.40;99.90;;;;;;10524588;28;20424;-30
2023/11/06 16:14:53;;;;;;;6.35;1.15;;;13.60;99.90;;;;;;10515213;28;21536;-33
2023/11/06 16:19:56;;;;;;;4.40;1.30;;;13.30;99.90;;;;;;10521454;28;20588;-36
2023/11/06 16:24:58;;;;;;;;;;;13.60;99.90;;;;;;10525171;28;20051;-35
2023/11/06 16:30:04;;;;;;;3.67;1.48;;;13.40;99.90;;;;;;10519127;28;19922;-37
2023/11/06 16:35:06;;;;;;;9.82;1.90;;;14.30;99.90;;;;;;10515328;28;20085;-48
2023/11/06 16:40:11;;;;;;;5.50;1.23;;;13.60;99.90;;;;;;10523817;28;20044;-34
2023/11/06 16:45:14;;;;;;;8.90;1.40;;;13.80;99.90;;;;;;10514101;28;20492;-29
2023/11/06 16:50:18;;;;;;;4.20;1.13;;;13.00;99.90;;;;;;10515540;28;20126;-31
2023/11/06 16:55:20;;;;;;;9.15;1.65;;;13.40;99.90;;;;;;10515979;28;20702;-29
2023/11/06 17:00:23;;;;;;;9.75;2.50;;;12.80;99.90;;;;;;10517169;28;22097;-38
2023/11/06 17:05:25;;;;;;;8.95;1.73;;;12.50;99.90;;;;;;10512144;28;20102;-33
2023/11/06 17:10:27;;;;;;;7.15;1.38;;;12.70;99.90;;;;;;10515902;28;20133;-31
2023/11/06 17:15:30;;;;;;;6.35;1.10;;;12.60;99.90;;;;;;10516088;28;20109;-39
2023/11/06 17:20:32;;;;;;;8.88;1.55;;;13.80;99.90;;;;;;10505081;28;20047;-38
2023/11/06 17:25:35;;;;;;;9.13;1.48;;;13.10;99.90;;;;;;10530089;28;20063;-33
2023/11/06 17:30:38;;;;;;;4.68;1.45;;;13.70;99.90;;;;;;10530137;28;20163;-34
2023/11/06 17:35:40;;;;;;;9.02;1.35;;;13.50;99.90;;;;;;10522421;28;20071;-33
2023/11/06 17:40:41;;;;;;;11.77;2.60;;;13.40;99.90;;;;;;10521573;28;20048;-33
2023/11/06 17:45:44;;;;;;;9.32;1.85;;;13.10;99.90;;;;;;10515993;28;20072;-39
2023/11/06 17:50:46;;;;;;;11.95;2.15;;;12.30;99.90;;;;;;10522375;28;20040;-43
2023/11/06 17:55:48;;;;;;;18.52;2.17;;;12.60;99.90;;;;;;10525432;28;20044;-35
2023/11/06 18:00:51;;;;;;;13.05;2.10;;;12.50;99.90;;;;;;10530540;28;20502;-31
2023/11/06 18:05:53;;;;;;;8.82;1.80;;;12.50;99.90;;;;;;10532242;28;20043;-33
2023/11/06 18:10:55;;;;;;;14.73;2.90;;;12.00;99.90;;;;;;10524931;28;20055;-38
2023/11/06 18:15:59;;;;;;;14.32;2.50;;;13.00;99.90;;;;;;10525155;28;20400;-35
2023/11/06 18:21:01;;;;;;;8.57;1.98;;;13.20;99.90;;;;;;10530267;28;20391;-41
2023/11/06 18:26:02;;;;;;;13.55;2.33;;;13.10;99.90;;;;;;10530633;28;20431;-36
2023/11/06 18:31:06;;;;;;;17.98;2.95;;;12.50;99.90;;;;;;10522607;28;20119;-37
2023/11/06 18:36:09;;;;;;;8.43;1.55;;;12.20;99.90;;;;;;10522292;28;20847;-38
2023/11/06 18:41:11;;;;;;;;;;;12.50;99.90;;;;;;10529418;28;20224;-33
2023/11/06 18:46:14;;;;;;;12.65;3.25;;;12.80;99.90;;;;;;10527031;28;19926;-37
2023/11/06 18:51:16;;;;;;;19.33;2.88;;;12.10;99.90;;;;;;10525053;28;20036;-30
2023/11/06 18:56:18;;;;;;;13.25;3.63;;;12.10;99.90;;;;;;10528491;28;20140;-34
2023/11/06 19:01:21;;;;;;;7.30;1.85;;;13.30;99.90;;;;;;10523666;28;20075;-44
2023/11/06 19:06:24;;;;;;;11.40;2.88;;;13.20;99.90;;;;;;10527642;28;20123;-39
2023/11/06 19:11:26;;;;;;;14.60;2.88;;;12.80;99.90;;;;;;10525826;28;20048;-35
2023/11/06 19:16:29;;;;;;;20.38;5.38;;;12.70;99.90;;;;;;10519489;28;20473;-30
2023/11/06 19:21:31;;;;;;;21.70;5.43;;;13.00;99.90;;;;;;10530164;28;20036;-35
2023/11/06 19:26:34;;;;;;;14.02;2.97;;;12.70;99.90;;;;;;10533653;28;20035;-36
2023/11/06 19:31:37;;;;;;;26.40;3.30;;;12.60;99.90;;;;;;10521520;28;20046;-39
2023/11/06 19:36:39;;;;;;;17.33;5.18;;;12.60;99.90;;;;;;10520795;28;20214;-30
2023/11/06 19:41:42;;;;;;;14.98;4.40;;;13.50;99.90;;;;;;10523183;28;20079;-30
2023/11/06 19:46:45;;;;;;;15.30;4.15;;;14.10;99.90;;;;;;10521122;28;20131;-30
2023/11/06 19:51:47;;;;;;;16.17;2.78;;;13.70;99.90;;;;;;10523138;28;20422;-30
2023/11/06 19:56:49;;;;;;;18.05;5.53;;;13.00;99.90;;;;;;10527724;28;20043;-32
2023/11/06 20:01:52;;;;;;;15.88;5.18;;;14.10;99.90;;;;;;10519036;28;20127;-36
2023/11/06 20:06:54;;;;;;;18.38;5.70;;;12.80;99.90;;;;;;10527039;28;20061;-32
2023/11/06 20:11:56;;;;;;;16.13;4.03;;;13.40;99.90;;;;;;10517970;28;20504;-36
2023/11/06 20:17:01;;;;;;;15.15;2.42;;;13.70;99.90;;;;;;10519895;28;20087;-39
2023/11/06 20:22:02;;;;;;;16.88;4.35;;;12.50;99.90;;;;;;10524630;28;20751;-33
2023/11/06 20:27:04;;;;;;;8.30;2.92;;;13.00;99.90;;;;;;10525777;28;20055;-37
2023/11/06 20:32:08;;;;;;;14.25;3.05;;;12.80;99.90;;;;;;10514190;28;20041;-33
2023/11/06 20:37:10;;;;;;;17.15;3.83;;;12.10;99.90;;;;;;10523609;28;20050;-36
2023/11/06 20:42:12;;;;;;;10.98;3.05;;;12.30;99.90;;;;;;10519152;28;20871;-35
2023/11/06 20:47:15;;;;;;;15.52;3.83;;;12.80;99.90;;;;;;10516944;28;20048;-36
2023/11/06 20:52:17;;;;;;;8.93;3.45;;;13.30;99.90;;;;;;10505244;28;20051;-30
2023/11/06 20:57:19;;;;;;;17.65;2.83;;;12.70;99.90;;;;;;10521936;28;20691;-32
2023/11/06 21:02:23;;;;;;;13.20;3.88;;;13.10;99.90;;;;;;10522866;28;20043;-32
2023/11/06 21:07:25;;;;;;;9.23;2.03;;;13.80;99.90;;;;;;10527552;28;20036;-33
2023/11/06 21:12:27;;;;;;;11.15;2.88;;;13.00;99.90;;;;;;10526908;28;20540;-36
2023/11/06 21:17:30;;;;;;;7.57;3.03;;;13.50;99.90;;;;;;10523391;28;20043;-34
2023/11/06 21:22:34;;;;;;;9.20;2.72;;;13.50;99.90;;;;;;10525688;28;20393;-33
2023/11/06 21:27:36;;;;;;;6.30;2.38;;;13.90;99.90;;;;;;10522101;28;20050;-31
2023/11/06 21:32:39;;;;;;;10.00;2.13;;;13.90;99.90;;;;;;10522190;28;20040;-37
2023/11/06 21:37:42;;;;;;;14.82;3.47;;;13.70;99.90;;;;;;10526323;28;20101;-37
2023/11/06 21:42:43;;;;;;;9.57;2.97;;;13.40;99.90;;;;;;10520592;28;20243;-36
2023/11/06 21:47:47;;;;;;;14.93;2.90;;;13.70;99.90;;;;;;10525086;28;20104;-32
2023/11/06 21:52:49;;;;;;;10.77;2.58;;;13.10;99.90;;;;;;10526250;28;20555;-37
2023/11/06 21:57:52;;;;;;;6.80;1.98;;;13.70;99.90;;;;;;10526880;28;20130;-32
2023/11/06 22:02:57;;;;;;;10.45;2.28;;;13.90;99.90;;;;;;10520259;28;20051;-33
2023/11/06 22:07:59;;;;;;;8.25;2.72;;;13.10;99.90;;;;;;10523409;28;20817;-42
2023/11/06 22:13:01;;;;;;;9.63;2.42;;;13.80;99.90;;;;;;10524851;28;20142;-36
2023/11/06 22:18:04;;;;;;;10.02;1.95;;;14.40;99.90;;;;;;10529221;28;20052;-42
2023/11/06 22:23:06;;;;;;;12.55;2.40;;;13.20;99.90;;;;;;10532403;28;20043;-39
2023/11/06 22:28:08;;;;;;;9.32;2.80;;;12.60;99.90;;;;;;10525163;28;20078;-43
2023/11/06 22:33:11;;;;;;;6.03;2.55;;;13.50;99.90;;;;;;10528239;28;20040;-32
2023/11/06 22:38:13;;;;;;;10.25;3.30;;;13.50;99.90;;;;;;10529531;28;20476;-37
2023/11/06 22:43:14;;;;;;;9.30;3.05;;;14.30;99.90;;;;;;10523397;28;20094;-34
2023/11/06 22:48:18;;;;;;;5.80;2.10;;;14.50;99.90;;;;;;10508474;28;20457;-33
2023/11/06 22:53:19;;;;;;;7.25;2.53;;;13.80;99.90;;;;;;10529181;28;20044;-32
2023/11/06 22:58:21;;;;;;;10.05;2.70;;;14.30;99.90;;;;;;10529673;28;20109;-32
2023/11/06 23:03:25;;;;;;;8.37;2.73;;;14.70;99.90;;;;;;10526729;28;20074;-32
2023/11/06 23:08:26;;;;;;;9.80;2.55;;;13.80;99.90;;;;;;10525046;28;20170;-38
2023/11/06 23:13:29;;;;;;;7.55;2.78;;;14.30;99.90;;;;;;10520092;28;20170;-34
2023/11/06 23:18:32;;;;;;;;;;;15.30;99.90;;;;;;10523689;28;20059;-35
2023/11/06 23:23:34;;;;;;;9.52;2.45;;;14.50;99.90;;;;;;10513962;28;19931;-33
2023/11/06 23:28:36;;;;;;;7.55;2.80;;;14.30;99.90;;;;;;10526359;28;20429;-32
2023/11/06 23:33:39;;;;;;;6.85;3.05;;;14.40;99.90;;;;;;10520435;28;20040;-36
2023/11/06 23:38:41;;;;;;;14.38;3.55;;;14.20;99.90;;;;;;10523644;28;20071;-30
2023/11/06 23:43:42;;;;;;;11.77;3.10;;;13.40;99.90;;;;;;10513852;28;20243;-47
2023/11/06 23:48:46;;;;;;;10.40;3.28;;;13.00;99.90;;;;;;10517449;28;20120;-32
2023/11/06 23:53:47;;;;;;;9.20;3.30;;;13.90;99.90;;;;;;10521402;28;20185;-31
2023/11/06 23:58:50;;;;;;;9.20;3.33;;;12.40;99.90;;;;;;10529126;28;20061;-35
